createdAt,value
2022-11-17T00:00:42.020Z,8.65
2022-11-17T00:03:13.050Z,8.74
2022-11-17T00:05:39.703Z,8.50
2022-11-17T00:08:06.348Z,9.69
2022-11-17T00:10:32.989Z,9.09
2022-11-17T00:13:18.197Z,9.52
2022-11-17T00:15:44.859Z,8.37
2022-11-17T00:18:30.482Z,7.97
2022-11-17T00:21:15.636Z,8.41
2022-11-17T00:23:48.453Z,8.06
2022-11-17T00:26:17.122Z,9.20
2022-11-17T00:28:43.773Z,8.35
2022-11-17T00:31:33.871Z,8.28
2022-11-17T00:34:07.092Z,8.82
2022-11-17T00:36:46.059Z,9.07
2022-11-17T00:39:14.702Z,8.52
2022-11-17T00:41:41.402Z,8.39
2022-11-17T00:44:09.048Z,8.87
2022-11-17T00:46:37.337Z,8.76
2022-11-17T00:49:05.388Z,9.34
2022-11-17T00:51:32.620Z,8.86
2022-11-17T00:53:59.393Z,8.89
2022-11-17T00:56:27.077Z,9.62
2022-11-17T00:58:54.107Z,8.82
2022-11-17T01:01:21.191Z,8.77
2022-11-17T01:03:48.380Z,8.91
2022-11-17T01:06:17.434Z,8.85
2022-11-17T01:08:44.641Z,8.61
2022-11-17T01:11:17.093Z,8.21
2022-11-17T01:13:45.024Z,9.05
2022-11-17T01:16:17.830Z,8.52
2022-11-17T01:18:46.720Z,8.30
2022-11-17T01:21:18.334Z,8.48
2022-11-17T01:23:46.022Z,8.64
2022-11-17T01:26:16.101Z,8.41
2022-11-17T01:28:43.235Z,9.14
2022-11-17T01:31:15.916Z,7.87
2022-11-17T01:33:43.015Z,9.01
2022-11-17T01:36:18.193Z,8.33
2022-11-17T01:38:45.240Z,8.26
2022-11-17T01:41:22.051Z,8.81
2022-11-17T01:43:55.137Z,8.92
2022-11-17T01:46:27.393Z,9.38
2022-11-17T01:49:21.415Z,8.38
2022-11-17T01:51:57.610Z,7.97
2022-11-17T01:54:28.756Z,7.84
2022-11-17T01:56:59.918Z,7.93
2022-11-17T01:59:33.977Z,7.49
2022-11-17T02:02:00.795Z,8.45
2022-11-17T02:04:32.160Z,8.79
2022-11-17T02:07:09.998Z,8.46
2022-11-17T02:09:40.654Z,8.33
2022-11-17T02:12:10.703Z,8.65
2022-11-17T02:14:39.064Z,8.30
2022-11-17T02:17:13.271Z,7.77
2022-11-17T02:19:44.207Z,8.18
2022-11-17T02:22:40.753Z,8.63
2022-11-17T02:25:30.610Z,8.75
2022-11-17T02:28:08.262Z,8.95
2022-11-17T02:30:46.058Z,8.87
2022-11-17T02:33:18.452Z,8.79
2022-11-17T02:36:00.965Z,8.44
2022-11-17T02:38:57.319Z,8.44
2022-11-17T02:41:35.060Z,8.30
2022-11-17T02:44:08.424Z,8.41
2022-11-17T02:46:57.922Z,8.36
2022-11-17T02:49:29.449Z,8.89
2022-11-17T02:51:58.697Z,8.20
2022-11-17T02:54:28.964Z,7.08
2022-11-17T02:56:55.585Z,8.48
2022-11-17T02:59:28.212Z,8.34
2022-11-17T03:02:28.763Z,8.46
2022-11-17T03:05:01.394Z,8.56
2022-11-17T03:07:42.944Z,8.11
2022-11-17T03:10:17.088Z,8.68
2022-11-17T03:13:01.467Z,8.28
2022-11-17T03:15:59.533Z,8.14
2022-11-17T03:18:44.164Z,8.09
2022-11-17T03:21:14.829Z,8.44
2022-11-17T03:23:41.433Z,9.21
2022-11-17T03:26:12.112Z,8.04
2022-11-17T03:28:39.851Z,7.89
2022-11-17T03:31:09.253Z,8.07
2022-11-17T03:33:39.209Z,8.00
2022-11-17T03:36:16.321Z,8.26
2022-11-17T03:38:51.808Z,8.24
2022-11-17T03:41:20.821Z,7.97
2022-11-17T03:43:51.794Z,8.49
2022-11-17T03:46:21.416Z,7.66
2022-11-17T03:49:18.437Z,7.41
2022-11-17T03:51:45.141Z,7.03
2022-11-17T03:54:12.952Z,7.17
2022-11-17T03:57:01.965Z,8.53
2022-11-17T03:59:53.666Z,8.03
2022-11-17T04:02:21.786Z,8.01
2022-11-17T04:05:06.962Z,7.84
2022-11-17T04:07:40.232Z,7.80
2022-11-17T04:10:10.373Z,7.75
2022-11-17T04:12:56.436Z,7.52
2022-11-17T04:15:52.828Z,8.41
2022-11-17T04:18:20.687Z,8.07
2022-11-17T04:20:55.357Z,7.25
2022-11-17T04:23:23.003Z,7.65
2022-11-17T04:26:10.855Z,7.13
2022-11-17T04:28:41.657Z,7.31
2022-11-17T04:31:20.464Z,7.46
2022-11-17T04:34:06.406Z,7.59
2022-11-17T04:36:37.805Z,6.98
2022-11-17T04:39:04.577Z,6.97
2022-11-17T04:41:49.845Z,7.08
2022-11-17T04:44:17.651Z,7.82
2022-11-17T04:46:45.914Z,8.38
2022-11-17T04:49:13.758Z,8.14
2022-11-17T04:51:41.322Z,8.52
2022-11-17T04:54:09.445Z,7.96
2022-11-17T04:56:36.771Z,7.66
2022-11-17T04:59:04.235Z,8.09
2022-11-17T05:01:31.925Z,8.42
2022-11-17T05:04:00.973Z,7.93
2022-11-17T05:06:37.726Z,8.38
2022-11-17T05:09:12.676Z,8.18
2022-11-17T05:11:58.266Z,7.38
2022-11-17T05:14:26.527Z,7.68
2022-11-17T05:17:10.362Z,8.63
2022-11-17T05:19:44.797Z,8.50
2022-11-17T05:22:34.865Z,7.16
2022-11-17T05:25:01.555Z,7.22
2022-11-17T05:27:28.385Z,7.39
2022-11-17T05:29:55.016Z,7.94
2022-11-17T05:32:21.676Z,8.22
2022-11-17T05:34:48.288Z,7.97
2022-11-17T05:37:15.143Z,8.46
2022-11-17T05:39:41.909Z,7.65
2022-11-17T05:42:08.557Z,7.28
2022-11-17T05:44:35.211Z,7.85
2022-11-17T05:47:01.836Z,7.71
2022-11-17T05:49:28.423Z,7.63
2022-11-17T05:51:55.079Z,7.65
2022-11-17T05:54:21.804Z,7.95
2022-11-17T05:57:06.404Z,7.25
2022-11-17T05:59:42.686Z,7.32
2022-11-17T06:02:18.047Z,7.04
2022-11-17T06:04:46.252Z,7.21
2022-11-17T06:07:13.000Z,7.95
2022-11-17T06:09:41.927Z,7.06
2022-11-17T06:12:08.828Z,7.29
2022-11-17T06:14:35.705Z,7.12
2022-11-17T06:17:07.583Z,8.03
2022-11-17T06:19:41.993Z,7.12
2022-11-17T06:22:12.761Z,7.71
2022-11-17T06:24:43.309Z,7.98
2022-11-17T06:27:11.838Z,7.86
2022-11-17T06:29:43.875Z,7.44
2022-11-17T06:32:15.703Z,7.36
2022-11-17T06:34:48.034Z,6.93
2022-11-17T06:37:17.176Z,6.54
2022-11-17T06:39:43.777Z,7.31
2022-11-17T06:42:10.309Z,6.63
2022-11-17T06:44:36.938Z,6.65
2022-11-17T06:47:03.748Z,7.03
2022-11-17T06:49:30.371Z,7.00
2022-11-17T06:51:56.939Z,6.27
2022-11-17T06:54:23.539Z,7.04
2022-11-17T06:56:51.438Z,7.56
2022-11-17T06:59:18.113Z,7.27
2022-11-17T07:01:44.654Z,7.57
2022-11-17T07:04:11.217Z,6.99
2022-11-17T07:06:38.036Z,7.39
2022-11-17T07:09:05.408Z,7.31
2022-11-17T07:11:34.463Z,7.97
2022-11-17T07:14:01.056Z,7.52
2022-11-17T07:16:29.141Z,7.27
2022-11-17T07:18:55.763Z,7.39
2022-11-17T07:21:22.431Z,7.76
2022-11-17T07:23:49.022Z,7.38
2022-11-17T07:26:15.617Z,7.29
2022-11-17T07:28:42.203Z,6.89
2022-11-17T07:31:09.445Z,7.01
2022-11-17T07:33:36.981Z,7.17
2022-11-17T07:36:12.443Z,6.56
2022-11-17T07:38:40.201Z,7.27
2022-11-17T07:41:08.783Z,8.03
2022-11-17T07:43:36.340Z,7.09
2022-11-17T07:46:07.434Z,6.54
2022-11-17T07:48:34.733Z,7.05
2022-11-17T07:51:03.304Z,7.22
2022-11-17T07:53:32.400Z,7.22
2022-11-17T07:56:04.056Z,6.35
2022-11-17T07:58:30.881Z,7.52
2022-11-17T08:00:57.664Z,7.56
2022-11-17T08:03:24.611Z,7.10
2022-11-17T08:05:51.230Z,6.97
2022-11-17T08:08:17.869Z,6.98
2022-11-17T08:10:44.496Z,6.74
2022-11-17T08:13:11.769Z,7.40
2022-11-17T08:15:38.493Z,6.84
2022-11-17T08:18:06.172Z,5.82
2022-11-17T08:20:32.789Z,6.97
2022-11-17T08:22:59.363Z,6.06
2022-11-17T08:25:27.427Z,6.99
2022-11-17T08:27:55.767Z,7.62
2022-11-17T08:30:22.976Z,7.09
2022-11-17T08:32:52.142Z,6.80
2022-11-17T08:35:20.718Z,7.00
2022-11-17T08:37:47.434Z,7.37
2022-11-17T08:40:15.849Z,7.31
2022-11-17T08:42:42.440Z,6.70
2022-11-17T08:45:10.601Z,6.95
2022-11-17T08:47:37.712Z,7.33
2022-11-17T08:50:06.006Z,7.33
2022-11-17T08:52:32.802Z,7.10
2022-11-17T08:54:59.509Z,6.94
2022-11-17T08:57:26.201Z,7.25
2022-11-17T08:59:52.859Z,7.73
2022-11-17T09:02:19.456Z,6.90
2022-11-17T09:04:46.756Z,6.96
2022-11-17T09:07:13.802Z,7.55
2022-11-17T09:09:40.614Z,7.63
2022-11-17T09:12:07.696Z,7.03
2022-11-17T09:14:34.360Z,6.86
2022-11-17T09:17:01.099Z,6.96
2022-11-17T09:19:27.737Z,7.07
2022-11-17T09:21:54.403Z,6.75
2022-11-17T09:24:21.006Z,7.46
2022-11-17T09:26:47.632Z,7.23
2022-11-17T09:29:14.337Z,7.84
2022-11-17T09:31:41.044Z,7.60
2022-11-17T09:34:08.090Z,6.68
2022-11-17T09:36:35.067Z,7.23
2022-11-17T09:39:01.722Z,7.30
2022-11-17T09:41:40.870Z,7.31
2022-11-17T09:44:32.180Z,6.88
2022-11-17T09:47:23.590Z,7.64
2022-11-17T09:50:28.713Z,7.49
2022-11-17T09:53:15.008Z,7.85
2022-11-17T09:55:45.437Z,7.06
2022-11-17T09:58:26.866Z,7.80
2022-11-17T10:00:54.395Z,7.20
2022-11-17T10:03:30.732Z,7.76
2022-11-17T10:05:59.518Z,7.04
2022-11-17T10:08:42.896Z,8.28
2022-11-17T10:11:31.828Z,7.41
2022-11-17T10:14:03.797Z,7.27
2022-11-17T10:16:31.447Z,6.85
2022-11-17T10:18:58.317Z,7.46
2022-11-17T10:21:30.340Z,7.28
2022-11-17T10:23:59.177Z,7.41
2022-11-17T10:26:26.457Z,7.17
2022-11-17T10:29:12.440Z,7.87
2022-11-17T10:31:45.341Z,7.81
2022-11-17T10:34:31.896Z,7.22
2022-11-17T10:37:23.043Z,7.90
2022-11-17T10:39:49.768Z,7.17
2022-11-17T10:42:28.847Z,8.27
2022-11-17T10:45:00.373Z,7.61
2022-11-17T10:47:40.473Z,7.01
2022-11-17T10:50:25.909Z,7.75
2022-11-17T10:52:54.536Z,7.41
2022-11-17T10:55:27.569Z,7.93
2022-11-17T10:58:19.677Z,7.16
2022-11-17T11:00:56.739Z,7.44
2022-11-17T11:03:28.092Z,7.33
2022-11-17T11:06:02.131Z,7.05
2022-11-17T11:08:55.328Z,7.97
2022-11-17T11:11:42.307Z,6.94
2022-11-17T11:14:14.615Z,7.45
2022-11-17T11:16:47.796Z,7.01
2022-11-17T11:19:17.337Z,7.89
2022-11-17T11:21:58.124Z,8.64
2022-11-17T11:24:52.393Z,7.53
2022-11-17T11:27:54.107Z,8.32
2022-11-17T11:30:20.919Z,7.27
2022-11-17T11:33:23.130Z,7.47
2022-11-17T11:36:05.107Z,7.79
2022-11-17T11:38:34.578Z,7.84
2022-11-17T11:41:39.782Z,8.04
2022-11-17T11:44:18.776Z,8.06
2022-11-17T11:46:54.247Z,7.51
2022-11-17T11:49:29.937Z,7.93
2022-11-17T11:51:57.414Z,7.57
2022-11-17T11:54:51.246Z,7.18
2022-11-17T11:57:25.206Z,7.86
2022-11-17T12:00:04.389Z,7.61
2022-11-17T12:02:55.303Z,6.84
2022-11-17T12:05:32.204Z,8.20
2022-11-17T12:08:18.610Z,7.50
2022-11-17T12:10:48.894Z,8.07
2022-11-17T12:13:18.921Z,8.11
2022-11-17T12:15:45.615Z,8.04
2022-11-17T12:18:18.395Z,7.56
2022-11-17T12:20:52.883Z,8.30
2022-11-17T12:23:53.238Z,7.86
2022-11-17T12:26:26.129Z,7.65
2022-11-17T12:29:21.145Z,7.42
2022-11-17T12:31:49.494Z,7.47
2022-11-17T12:34:21.446Z,7.71
2022-11-17T12:37:15.932Z,7.63
2022-11-17T12:40:03.842Z,7.60
2022-11-17T12:42:32.402Z,7.89
2022-11-17T12:45:06.255Z,7.19
2022-11-17T12:47:37.280Z,7.71
2022-11-17T12:50:19.794Z,7.47
2022-11-17T12:53:18.277Z,7.94
2022-11-17T12:55:57.001Z,7.33
2022-11-17T12:58:36.004Z,7.71
2022-11-17T13:01:16.119Z,6.74
2022-11-17T13:03:47.120Z,7.74
2022-11-17T13:09:06.856Z,7.46
2022-11-17T13:11:34.196Z,7.31
2022-11-17T13:14:17.162Z,7.59
2022-11-17T13:16:51.168Z,7.42
2022-11-17T13:19:30.045Z,8.20
2022-11-17T13:22:01.520Z,7.21
2022-11-17T13:24:31.199Z,7.68
2022-11-17T13:26:59.979Z,7.68
2022-11-17T13:29:26.635Z,7.01
2022-11-17T13:32:24.010Z,7.02
2022-11-17T13:34:56.695Z,6.92
2022-11-17T13:37:30.208Z,7.20
2022-11-17T13:40:19.870Z,6.94
2022-11-17T13:42:47.294Z,7.41
2022-11-17T13:45:15.617Z,7.28
2022-11-17T13:47:48.079Z,7.23
2022-11-17T13:50:26.937Z,6.64
2022-11-17T13:53:26.517Z,6.39
2022-11-17T13:55:53.343Z,7.29
2022-11-17T13:58:27.156Z,7.02
2022-11-17T14:00:57.614Z,7.01
2022-11-17T14:03:33.575Z,7.01
2022-11-17T14:06:05.603Z,6.97
2022-11-17T14:08:34.607Z,7.06
2022-11-17T14:11:10.171Z,7.63
2022-11-17T14:13:44.864Z,7.08
2022-11-17T14:16:27.409Z,7.45
2022-11-17T14:19:00.070Z,6.83
2022-11-17T14:21:27.667Z,6.86
2022-11-17T14:24:23.448Z,7.47
2022-11-17T14:26:50.140Z,7.65
2022-11-17T14:29:17.040Z,6.73
2022-11-17T14:31:43.687Z,6.47
2022-11-17T14:34:10.345Z,6.64
2022-11-17T14:36:39.359Z,7.67
2022-11-17T14:39:18.021Z,7.72
2022-11-17T14:41:47.745Z,7.17
2022-11-17T14:44:14.718Z,6.75
2022-11-17T14:46:41.797Z,6.71
2022-11-17T14:49:09.134Z,7.44
2022-11-17T14:51:36.103Z,7.54
2022-11-17T14:54:04.144Z,6.90
2022-11-17T14:56:30.844Z,7.33
2022-11-17T14:58:59.459Z,6.86
2022-11-17T15:01:31.844Z,7.19
2022-11-17T15:04:15.349Z,6.46
2022-11-17T15:06:48.180Z,6.83
2022-11-17T15:09:17.924Z,7.95
2022-11-17T15:11:44.502Z,7.55
2022-11-17T15:14:11.430Z,6.81
2022-11-17T15:16:38.372Z,6.55
2022-11-17T15:19:06.737Z,6.96
2022-11-17T15:21:33.751Z,6.75
2022-11-17T15:24:01.937Z,7.72
2022-11-17T15:26:28.567Z,7.21
2022-11-17T15:28:57.787Z,6.59
2022-11-17T15:31:24.551Z,6.89
2022-11-17T15:33:51.275Z,6.52
2022-11-17T15:36:21.399Z,7.07
2022-11-17T15:38:48.100Z,6.79
2022-11-17T15:41:15.692Z,7.38
2022-11-17T15:43:43.857Z,7.01
2022-11-17T15:46:12.875Z,6.72
2022-11-17T15:48:42.920Z,7.31
2022-11-17T15:51:12.121Z,7.62
2022-11-17T15:53:39.508Z,6.98
2022-11-17T15:56:12.912Z,7.56
2022-11-17T15:58:41.241Z,7.43
2022-11-17T16:01:16.459Z,7.37
2022-11-17T16:03:45.162Z,7.70
2022-11-17T16:06:13.074Z,6.96
2022-11-17T16:08:39.745Z,7.29
2022-11-17T16:11:07.321Z,7.94
2022-11-17T16:13:34.041Z,7.14
2022-11-17T16:16:00.853Z,6.92
2022-11-17T16:18:27.562Z,7.00
2022-11-17T16:20:54.770Z,7.54
2022-11-17T16:23:22.106Z,6.79
2022-11-17T16:25:49.005Z,7.60
2022-11-17T16:28:17.104Z,7.12
2022-11-17T16:30:43.802Z,7.89
2022-11-17T16:33:14.993Z,7.28
2022-11-17T16:35:41.660Z,6.63
2022-11-17T16:38:15.956Z,7.42
2022-11-17T16:40:43.706Z,7.43
2022-11-17T16:43:12.330Z,7.75
2022-11-17T16:45:44.686Z,7.49
2022-11-17T16:48:12.724Z,7.19
2022-11-17T16:50:41.364Z,6.99
2022-11-17T16:53:08.606Z,6.60
2022-11-17T16:55:36.132Z,7.30
2022-11-17T16:58:04.506Z,6.71
2022-11-17T17:00:31.578Z,7.71
2022-11-17T17:02:58.322Z,6.60
2022-11-17T17:05:25.702Z,7.31
2022-11-17T17:07:52.349Z,7.49
2022-11-17T17:10:19.119Z,7.09
2022-11-17T17:12:45.717Z,6.73
2022-11-17T17:15:14.959Z,7.07
2022-11-17T17:17:41.566Z,7.05
2022-11-17T17:20:09.893Z,6.57
2022-11-17T17:22:36.497Z,6.27
2022-11-17T17:25:03.725Z,6.65
2022-11-17T17:27:31.272Z,7.17
2022-11-17T17:29:57.996Z,7.25
2022-11-17T17:32:24.619Z,7.02
2022-11-17T17:34:51.606Z,7.30
2022-11-17T17:37:18.254Z,7.40
2022-11-17T17:39:45.051Z,7.21
2022-11-17T17:42:13.264Z,7.50
2022-11-17T17:44:40.027Z,7.62
2022-11-17T17:47:06.661Z,7.33
2022-11-17T17:49:33.265Z,7.33
2022-11-17T17:51:59.898Z,7.29
2022-11-17T17:54:26.477Z,7.52
2022-11-17T17:56:53.180Z,6.26
2022-11-17T17:59:20.137Z,7.06
2022-11-17T18:01:48.033Z,6.90
2022-11-17T18:04:16.583Z,7.09
2022-11-17T18:06:47.140Z,6.61
2022-11-17T18:09:15.564Z,6.80
2022-11-17T18:11:46.001Z,7.11
2022-11-17T18:14:13.475Z,7.40
2022-11-17T18:16:40.787Z,7.37
2022-11-17T18:19:09.082Z,7.48
2022-11-17T18:21:36.333Z,7.89
2022-11-17T18:24:04.226Z,7.08
2022-11-17T18:26:35.970Z,6.94
2022-11-17T18:29:05.443Z,6.48
2022-11-17T18:31:35.052Z,7.52
2022-11-17T18:34:04.970Z,7.10
2022-11-17T18:36:32.296Z,6.60
2022-11-17T18:38:59.040Z,7.05
2022-11-17T18:41:26.770Z,7.29
2022-11-17T18:43:54.999Z,7.18
2022-11-17T18:46:23.558Z,6.40
2022-11-17T18:48:54.220Z,7.34
2022-11-17T18:51:23.250Z,7.03
2022-11-17T18:53:51.803Z,6.79
2022-11-17T18:56:21.648Z,6.52
2022-11-17T18:58:48.599Z,6.69
2022-11-17T19:01:23.640Z,7.19
2022-11-17T19:03:55.023Z,7.04
2022-11-17T19:06:24.542Z,6.86
2022-11-17T19:08:52.360Z,6.19
2022-11-17T19:11:20.712Z,7.10
2022-11-17T19:13:47.589Z,6.37
2022-11-17T19:16:17.294Z,6.72
2022-11-17T19:18:45.369Z,7.17
2022-11-17T19:21:14.870Z,6.47
2022-11-17T19:23:48.036Z,7.03
2022-11-17T19:26:23.817Z,6.83
2022-11-17T19:28:50.883Z,7.02
2022-11-17T19:31:19.792Z,7.29
2022-11-17T19:33:47.916Z,6.75
2022-11-17T19:36:22.762Z,6.27
2022-11-17T19:38:54.014Z,6.44
2022-11-17T19:41:23.564Z,6.49
2022-11-17T19:44:01.906Z,6.91
2022-11-17T19:46:30.049Z,7.21
2022-11-17T19:48:57.235Z,6.58
2022-11-17T19:51:29.546Z,6.07
2022-11-17T19:54:00.465Z,6.53
2022-11-17T19:56:27.822Z,6.28
2022-11-17T19:58:55.516Z,6.92
2022-11-17T20:01:27.613Z,6.69
2022-11-17T20:03:55.229Z,6.05
2022-11-17T20:06:27.097Z,6.67
2022-11-17T20:08:55.120Z,5.97
2022-11-17T20:11:24.267Z,6.85
2022-11-17T20:13:51.255Z,6.27
2022-11-17T20:16:21.285Z,6.63
2022-11-17T20:18:52.571Z,5.74
2022-11-17T20:21:19.618Z,5.23
2022-11-17T20:23:46.776Z,5.79
2022-11-17T20:26:19.419Z,6.76
2022-11-17T20:28:46.545Z,5.82
2022-11-17T20:31:33.408Z,5.88
2022-11-17T20:34:01.505Z,6.00
2022-11-17T20:36:30.093Z,6.27
2022-11-17T20:38:59.095Z,6.23
2022-11-17T20:41:26.118Z,6.07
2022-11-17T20:43:57.001Z,5.56
2022-11-17T20:46:24.816Z,5.46
2022-11-17T20:48:51.858Z,5.83
2022-11-17T20:51:23.390Z,5.72
2022-11-17T20:53:50.455Z,5.32
2022-11-17T20:56:17.740Z,6.10
2022-11-17T20:58:44.973Z,6.34
2022-11-17T21:01:15.911Z,6.83
2022-11-17T21:03:43.099Z,6.60
2022-11-17T21:06:10.356Z,6.08
2022-11-17T21:08:39.899Z,5.97
2022-11-17T21:11:32.221Z,6.74
2022-11-17T21:13:59.293Z,6.85
2022-11-17T21:16:25.938Z,6.47
2022-11-17T21:18:52.727Z,6.44
2022-11-17T21:21:19.364Z,6.08
2022-11-17T21:23:46.145Z,6.64
2022-11-17T21:26:17.132Z,5.68
2022-11-17T21:28:44.121Z,6.39
2022-11-17T21:31:13.678Z,5.92
2022-11-17T21:33:41.011Z,6.60
2022-11-17T21:36:13.297Z,6.37
2022-11-17T21:38:40.247Z,5.89
2022-11-17T21:41:10.787Z,6.54
2022-11-17T21:43:38.912Z,6.17
2022-11-17T21:46:08.217Z,5.85
2022-11-17T21:48:36.466Z,6.20
2022-11-17T21:51:04.517Z,5.78
2022-11-17T21:53:31.214Z,5.41
2022-11-17T21:56:05.443Z,6.41
2022-11-17T21:58:32.487Z,6.03
2022-11-17T22:00:59.607Z,6.60
2022-11-17T22:03:26.288Z,6.10
2022-11-17T22:05:55.735Z,5.50
2022-11-17T22:08:24.738Z,5.50
2022-11-17T22:10:51.315Z,5.29
2022-11-17T22:13:17.905Z,6.36
2022-11-17T22:15:44.530Z,6.45
2022-11-17T22:18:11.139Z,5.12
2022-11-17T22:20:37.781Z,5.78
2022-11-17T22:23:04.499Z,5.98
2022-11-17T22:25:44.626Z,6.55
2022-11-17T22:28:12.212Z,6.07
2022-11-17T22:30:38.962Z,5.77
2022-11-17T22:33:05.594Z,5.86
2022-11-17T22:35:32.221Z,6.06
2022-11-17T22:37:58.814Z,5.50
2022-11-17T22:40:25.365Z,5.19
2022-11-17T22:42:55.138Z,5.81
2022-11-17T22:45:33.556Z,6.12
2022-11-17T22:48:01.870Z,6.25
2022-11-17T22:50:28.466Z,6.39
2022-11-17T22:52:55.353Z,6.45
2022-11-17T22:55:22.178Z,5.65
2022-11-17T22:57:50.604Z,6.24
2022-11-17T23:00:17.315Z,6.47
2022-11-17T23:02:43.934Z,6.70
2022-11-17T23:05:10.575Z,6.62
2022-11-17T23:07:37.210Z,6.82
2022-11-17T23:10:04.311Z,5.82
2022-11-17T23:12:30.912Z,6.09
2022-11-17T23:14:57.521Z,5.74
2022-11-17T23:17:24.696Z,5.47
2022-11-17T23:19:51.286Z,5.18
2022-11-17T23:22:17.899Z,6.68
2022-11-17T23:24:44.500Z,5.15
2022-11-17T23:27:11.293Z,6.32
2022-11-17T23:29:37.936Z,5.61
2022-11-17T23:32:04.736Z,5.87
2022-11-17T23:34:31.460Z,5.71
2022-11-17T23:37:03.394Z,5.64
2022-11-17T23:39:30.549Z,6.06
2022-11-17T23:41:57.169Z,6.56
2022-11-17T23:44:23.787Z,5.76
2022-11-17T23:46:50.381Z,5.23
2022-11-17T23:49:17.189Z,5.85
2022-11-17T23:51:43.962Z,5.88
2022-11-17T23:54:15.790Z,5.85
2022-11-17T23:56:42.558Z,5.45
2022-11-17T23:59:09.840Z,5.06
